Time;durP1;ratioP1;P1;durP2;ratioP2;P2;SDS_P1;SDS_P2;PMS_P1;PMS_P2;Temp;Humidity;BMP_temperature;BMP_pressure;BME280_temperature;BME280_humidity;BME280_pressure;Samples;Min_cycle;Max_cycle;Signal;HPM_P1;HPM_P2
2022/06/22 00:02:05;;;;;;;12.27;6.15;;;13.10;99.90;;;;;;5009527;28;20045;-76
2022/06/22 00:04:44;;;;;;;12.57;6.45;;;13.10;99.90;;;;;;5010205;28;20432;-78
2022/06/22 00:07:20;;;;;;;13.43;6.97;;;13.10;99.90;;;;;;5010134;28;20046;-76
2022/06/22 00:09:51;;;;;;;9.68;6.85;;;13.00;99.90;;;;;;5009445;28;20041;-76
2022/06/22 00:12:22;;;;;;;11.82;6.88;;;12.90;99.90;;;;;;5009865;28;20074;-79
2022/06/22 00:14:52;;;;;;;13.45;7.13;;;12.90;99.90;;;;;;5011049;28;20069;-76
2022/06/22 00:17:22;;;;;;;12.68;6.63;;;12.80;99.90;;;;;;5009713;28;20113;-76
2022/06/22 00:19:48;;;;;;;11.57;6.60;;;12.70;99.90;;;;;;5009671;28;20073;-76
2022/06/22 00:22:26;;;;;;;13.32;7.45;;;12.80;99.90;;;;;;5009734;28;20038;-76
2022/06/22 00:25:31;;;;;;;13.23;7.25;;;12.80;99.90;;;;;;5009618;28;20053;-78
2022/06/22 00:28:36;;;;;;;11.90;6.88;;;12.70;99.90;;;;;;4979974;28;20050;-76
2022/06/22 00:31:25;;;;;;;8.88;6.15;;;12.70;99.90;;;;;;5009371;28;20046;-78
2022/06/22 00:34:09;;;;;;;16.20;6.07;;;12.70;99.90;;;;;;5009702;28;20045;-79
2022/06/22 00:36:47;;;;;;;9.48;6.45;;;12.60;99.90;;;;;;5009859;28;20124;-76
2022/06/22 00:39:15;;;;;;;11.65;6.32;;;12.60;99.90;;;;;;5009834;28;20050;-76
2022/06/22 00:41:41;;;;;;;11.68;6.85;;;12.60;99.90;;;;;;5009445;28;20041;-77
2022/06/22 00:44:08;;;;;;;15.88;6.38;;;12.50;99.90;;;;;;5009474;28;20038;-76
2022/06/22 00:46:52;;;;;;;10.68;6.00;;;12.40;99.90;;;;;;5009653;28;20042;-76
2022/06/22 00:49:20;;;;;;;11.25;6.50;;;12.40;99.90;;;;;;5009562;28;20049;-76
2022/06/22 00:51:46;;;;;;;12.15;6.88;;;12.30;99.90;;;;;;5009202;28;20494;-79
2022/06/22 00:54:17;;;;;;;12.02;6.40;;;12.30;99.90;;;;;;5009311;28;20056;-78
2022/06/22 00:56:51;;;;;;;14.32;7.43;;;12.30;99.90;;;;;;5009583;28;20050;-76
2022/06/22 00:59:17;;;;;;;11.00;6.45;;;12.20;99.90;;;;;;5009621;28;20034;-76
2022/06/22 01:02:01;;;;;;;13.20;6.90;;;12.20;99.90;;;;;;5009032;28;20145;-77
2022/06/22 01:04:53;;;;;;;13.55;6.30;;;12.20;99.90;;;;;;5010612;28;20524;-76
2022/06/22 01:07:30;;;;;;;9.55;7.10;;;12.10;99.90;;;;;;5009488;28;20125;-76
2022/06/22 01:10:08;;;;;;;16.58;6.40;;;12.10;99.90;;;;;;5009262;28;20140;-76
2022/06/22 01:13:13;;;;;;;11.88;6.88;;;12.00;99.90;;;;;;5011611;28;20042;-76
2022/06/22 01:15:54;;;;;;;10.88;6.38;;;12.00;99.90;;;;;;5012754;28;20096;-78
2022/06/22 01:18:32;;;;;;;10.57;6.47;;;12.00;99.90;;;;;;5012728;28;20045;-76
2022/06/22 01:21:07;;;;;;;11.27;6.68;;;12.00;99.90;;;;;;5012561;28;20054;-77
2022/06/22 01:23:54;;;;;;;10.48;6.22;;;11.90;99.90;;;;;;5012608;28;20061;-76
2022/06/22 01:26:58;;;;;;;9.25;5.82;;;11.90;99.90;;;;;;5012664;28;20100;-76
2022/06/22 01:29:25;;;;;;;10.73;6.25;;;11.90;99.90;;;;;;5012696;28;20049;-77
2022/06/22 01:31:57;;;;;;;8.40;6.93;;;11.80;99.90;;;;;;5012742;28;20038;-78
2022/06/22 01:34:25;;;;;;;12.75;6.47;;;11.70;99.90;;;;;;5012530;28;20544;-76
2022/06/22 01:36:51;;;;;;;10.60;6.72;;;11.60;99.90;;;;;;5012581;28;20096;-76
2022/06/22 01:39:17;;;;;;;10.02;6.57;;;11.70;99.90;;;;;;5012199;28;20065;-76
2022/06/22 01:41:42;;;;;;;12.63;7.40;;;11.70;99.90;;;;;;5012144;28;20528;-76
2022/06/22 01:44:33;;;;;;;11.80;7.05;;;11.70;99.90;;;;;;5012296;28;20053;-76
2022/06/22 01:47:11;;;;;;;10.38;6.72;;;11.60;99.90;;;;;;5012325;28;20475;-76
2022/06/22 01:50:02;;;;;;;10.63;6.97;;;11.60;99.90;;;;;;5012054;28;20489;-76
2022/06/22 01:52:46;;;;;;;11.23;6.43;;;11.50;99.90;;;;;;5012181;28;20073;-77
2022/06/22 01:55:18;;;;;;;9.88;6.30;;;11.50;99.90;;;;;;5018676;28;20053;-80
2022/06/22 01:57:54;;;;;;;10.93;6.75;;;11.50;99.90;;;;;;5026831;28;20060;-78
2022/06/22 02:00:19;;;;;;;7.40;5.35;;;11.50;99.90;;;;;;5018934;28;20053;-76
2022/06/22 02:03:07;;;;;;;11.40;6.18;;;11.50;99.90;;;;;;5012003;28;20038;-76
2022/06/22 02:05:43;;;;;;;11.07;6.15;;;11.50;99.90;;;;;;5011892;28;20077;-76
2022/06/22 02:08:36;;;;;;;9.10;6.72;;;11.40;99.90;;;;;;5012319;28;20046;-77
2022/06/22 02:11:07;;;;;;;12.63;6.85;;;11.40;99.90;;;;;;5011519;28;20137;-76
2022/06/22 02:13:54;;;;;;;7.82;5.35;;;11.20;99.90;;;;;;5011718;28;20041;-76
2022/06/22 02:16:45;;;;;;;11.57;6.32;;;11.30;99.90;;;;;;5011658;28;20050;-76
2022/06/22 02:19:16;;;;;;;13.50;6.85;;;11.20;99.90;;;;;;4995635;28;20033;-76
2022/06/22 02:21:43;;;;;;;12.80;6.47;;;11.20;99.90;;;;;;5011619;28;20085;-76
2022/06/22 02:24:28;;;;;;;10.40;6.50;;;11.20;99.90;;;;;;5010624;28;20116;-76
2022/06/22 02:26:59;;;;;;;11.60;6.72;;;11.10;99.90;;;;;;5011557;28;20436;-76
2022/06/22 02:29:32;;;;;;;10.93;6.65;;;11.00;99.90;;;;;;5011484;28;20409;-77
2022/06/22 02:32:03;;;;;;;8.43;6.45;;;11.00;99.90;;;;;;5011459;28;20049;-76
2022/06/22 02:34:32;;;;;;;9.10;6.83;;;10.90;99.90;;;;;;5011225;28;20101;-79
2022/06/22 02:37:00;;;;;;;11.80;6.85;;;10.90;99.90;;;;;;5011266;28;20052;-76
2022/06/22 02:39:29;;;;;;;12.60;6.53;;;10.90;99.90;;;;;;5012488;28;20100;-80
2022/06/22 02:44:45;;;;;;;11.05;6.05;;;10.80;99.90;;;;;;5011086;28;20104;-76
2022/06/22 02:47:17;;;;;;;12.85;6.68;;;10.90;99.90;;;;;;5011120;28;20045;-76
2022/06/22 02:50:17;;;;;;;8.35;5.35;;;10.80;99.90;;;;;;5010713;28;20045;-76
2022/06/22 02:52:56;;;;;;;9.50;5.88;;;10.70;99.90;;;;;;5011077;28;20061;-76
2022/06/22 02:55:27;;;;;;;8.40;5.53;;;10.70;99.90;;;;;;5011084;28;20097;-76
2022/06/22 02:57:52;;;;;;;12.98;6.20;;;10.70;99.90;;;;;;5010999;28;20454;-76
2022/06/22 03:00:22;;;;;;;9.75;6.38;;;10.50;99.90;;;;;;5010931;28;20124;-76
2022/06/22 03:03:04;;;;;;;10.07;5.68;;;10.60;99.90;;;;;;4994430;28;20046;-76
2022/06/22 03:05:29;;;;;;;11.48;6.63;;;10.60;99.90;;;;;;5010817;28;20050;-76
2022/06/22 03:07:59;;;;;;;10.10;6.78;;;10.60;99.90;;;;;;5010696;28;20056;-77
2022/06/22 03:10:44;;;;;;;11.85;6.03;;;10.60;99.90;;;;;;5010598;28;20584;-77
2022/06/22 03:13:22;;;;;;;10.32;6.85;;;10.60;99.90;;;;;;5010786;28;20077;-77
2022/06/22 03:15:48;;;;;;;11.13;6.05;;;10.60;99.90;;;;;;5010584;28;20042;-76
2022/06/22 03:18:23;;;;;;;11.82;6.90;;;10.50;99.90;;;;;;5011000;28;20201;-77
2022/06/22 03:20:58;;;;;;;11.88;6.03;;;10.60;99.90;;;;;;5010548;28;20401;-77
2022/06/22 03:23:37;;;;;;;11.48;6.13;;;10.50;99.90;;;;;;5010464;28;20042;-76
2022/06/22 03:26:12;;;;;;;10.07;6.40;;;10.50;99.90;;;;;;5010229;28;20049;-77
2022/06/22 03:28:42;;;;;;;7.32;5.57;;;10.40;99.90;;;;;;5010527;28;20038;-77
2022/06/22 03:31:13;;;;;;;8.00;6.05;;;10.30;99.90;;;;;;5010128;28;20042;-78
2022/06/22 03:33:50;;;;;;;13.67;6.47;;;10.30;99.90;;;;;;5010374;28;20053;-77
2022/06/22 03:36:29;;;;;;;9.90;6.15;;;10.30;99.90;;;;;;5010121;28;20304;-77
2022/06/22 03:39:01;;;;;;;10.18;6.18;;;10.20;99.90;;;;;;5010091;28;20053;-77
2022/06/22 03:41:32;;;;;;;12.85;6.25;;;10.20;99.90;;;;;;5009923;28;20077;-77
2022/06/22 03:44:09;;;;;;;9.85;6.20;;;10.20;99.90;;;;;;5010223;28;20551;-77
2022/06/22 03:46:56;;;;;;;11.13;6.80;;;10.20;99.90;;;;;;5009876;28;20053;-76
2022/06/22 03:49:30;;;;;;;10.15;6.43;;;10.20;99.90;;;;;;5010031;28;20194;-76
2022/06/22 03:52:17;;;;;;;10.27;6.85;;;10.10;99.90;;;;;;5009895;28;20092;-77
2022/06/22 03:54:55;;;;;;;12.55;6.75;;;10.20;99.90;;;;;;4993515;28;20101;-77
2022/06/22 03:57:27;;;;;;;9.98;6.75;;;10.20;99.90;;;;;;5010128;28;20492;-76
2022/06/22 03:59:53;;;;;;;11.38;6.82;;;10.30;99.90;;;;;;5009736;28;20056;-77
2022/06/22 04:02:19;;;;;;;11.48;7.07;;;10.30;99.90;;;;;;5009827;28;20081;-76
2022/06/22 04:04:52;;;;;;;13.10;7.80;;;10.30;99.90;;;;;;5009650;28;20446;-77
2022/06/22 04:07:18;;;;;;;16.10;7.97;;;10.40;99.90;;;;;;5009974;28;20128;-77
2022/06/22 04:09:51;;;;;;;17.55;8.57;;;10.50;99.90;;;;;;5009447;28;20042;-77
2022/06/22 04:12:25;;;;;;;17.02;8.90;;;10.50;99.90;;;;;;4993563;28;20050;-77
2022/06/22 04:15:00;;;;;;;15.23;8.93;;;10.70;99.90;;;;;;5010872;28;20108;-77
2022/06/22 04:17:37;;;;;;;16.90;8.77;;;10.70;99.90;;;;;;5009565;28;20042;-77
2022/06/22 04:20:20;;;;;;;18.55;9.25;;;10.80;99.90;;;;;;5009297;28;20524;-77
2022/06/22 04:22:57;;;;;;;15.82;9.23;;;11.00;99.90;;;;;;5009532;28;20038;-76
2022/06/22 04:25:34;;;;;;;19.52;9.05;;;11.10;99.90;;;;;;5009526;28;20100;-77
2022/06/22 04:28:04;;;;;;;16.17;8.95;;;11.20;99.90;;;;;;5009385;28;20319;-77
2022/06/22 04:30:40;;;;;;;20.50;10.13;;;11.20;99.90;;;;;;5009535;28;20046;-78
2022/06/22 04:33:12;;;;;;;14.18;8.15;;;11.30;99.90;;;;;;5009610;28;20384;-76
2022/06/22 04:35:44;;;;;;;17.27;9.10;;;11.30;99.90;;;;;;5009280;28;20584;-76
2022/06/22 04:38:47;;;;;;;15.88;9.40;;;11.40;99.90;;;;;;4993493;28;20046;-78
2022/06/22 04:41:35;;;;;;;16.73;9.60;;;11.60;99.90;;;;;;5003214;28;20197;-79
2022/06/22 04:44:22;;;;;;;13.05;8.57;;;11.70;99.90;;;;;;5012419;28;20417;-78
2022/06/22 04:47:05;;;;;;;15.73;8.95;;;11.70;99.90;;;;;;5020490;28;20042;-77
2022/06/22 04:49:40;;;;;;;15.25;9.52;;;11.80;99.90;;;;;;5022528;28;20105;-75
2022/06/22 04:52:36;;;;;;;14.70;8.82;;;12.00;99.90;;;;;;5015815;28;20045;-79
2022/06/22 04:55:04;;;;;;;14.88;8.73;;;12.40;99.90;;;;;;5009135;28;20428;-78
2022/06/22 04:57:39;;;;;;;18.13;9.05;;;12.60;99.90;;;;;;4997675;28;20531;-78
2022/06/22 05:00:16;;;;;;;16.25;8.82;;;12.70;99.90;;;;;;5013457;28;20089;-79
2022/06/22 05:02:44;;;;;;;16.02;8.98;;;12.80;99.90;;;;;;5013550;28;20084;-78
2022/06/22 05:05:23;;;;;;;12.70;8.02;;;13.00;99.90;;;;;;5013653;28;20073;-78
2022/06/22 05:08:01;;;;;;;12.95;8.07;;;13.40;99.90;;;;;;5013453;28;20046;-79
2022/06/22 05:10:33;;;;;;;17.98;9.45;;;13.90;99.90;;;;;;5013032;28;20152;-79
2022/06/22 05:13:03;;;;;;;15.48;9.57;;;14.50;99.90;;;;;;4997089;28;20533;-79
2022/06/22 05:15:36;;;;;;;16.02;8.73;;;15.10;99.90;;;;;;5013000;28;20413;-78
2022/06/22 05:18:09;;;;;;;12.15;8.70;;;15.60;99.90;;;;;;4996400;28;20048;-78
2022/06/22 05:20:42;;;;;;;13.35;8.82;;;16.10;99.90;;;;;;5013983;28;20097;-78
2022/06/22 05:23:08;;;;;;;13.60;8.98;;;16.60;99.90;;;;;;5012855;28;20038;-79
2022/06/22 05:25:36;;;;;;;13.13;8.93;;;17.00;99.90;;;;;;5012548;28;20041;-79
2022/06/22 05:28:08;;;;;;;15.98;9.32;;;17.40;99.90;;;;;;5012836;28;20046;-79
2022/06/22 05:30:41;;;;;;;;;;;17.60;99.90;;;;;;4996765;28;20418;-79
2022/06/22 05:33:12;;;;;;;12.02;9.48;;;17.80;99.90;;;;;;5012811;28;19928;-79
2022/06/22 05:36:01;;;;;;;13.85;9.95;;;18.10;99.90;;;;;;5012525;28;20049;-79
2022/06/22 05:38:28;;;;;;;13.98;8.23;;;18.20;99.90;;;;;;5013996;28;20117;-79
2022/06/22 05:40:55;;;;;;;12.05;9.27;;;18.50;99.90;;;;;;5024521;28;20029;-80
2022/06/22 05:43:23;;;;;;;14.85;9.05;;;18.90;99.90;;;;;;5021896;28;20515;-79
2022/06/22 05:45:55;;;;;;;11.20;8.73;;;19.20;99.90;;;;;;5013551;28;20034;-79
2022/06/22 05:48:26;;;;;;;17.25;8.77;;;19.50;99.90;;;;;;5012500;28;20068;-79
2022/06/22 05:51:07;;;;;;;10.98;9.13;;;19.70;99.90;;;;;;5011951;28;20252;-78
2022/06/22 05:53:33;;;;;;;11.82;9.20;;;19.90;99.90;;;;;;5012621;28;20045;-79
2022/06/22 05:56:07;;;;;;;11.02;9.15;;;20.00;99.90;;;;;;5011751;28;20050;-79
2022/06/22 05:58:40;;;;;;;17.98;9.55;;;20.30;99.90;;;;;;5011302;28;20153;-79
2022/06/22 06:01:15;;;;;;;15.82;9.95;;;20.40;99.90;;;;;;4995470;28;20038;-79
2022/06/22 06:04:07;;;;;;;12.15;9.70;;;20.60;99.90;;;;;;5011861;28;20064;-80
2022/06/22 06:06:40;;;;;;;16.83;10.27;;;20.90;99.90;;;;;;5013478;28;20046;-79
2022/06/22 06:09:11;;;;;;;12.43;9.15;;;21.00;99.90;;;;;;4995602;28;20048;-79
2022/06/22 06:11:44;;;;;;;15.68;10.38;;;21.20;99.90;;;;;;4995725;28;20041;-80
2022/06/22 06:14:19;;;;;;;14.23;9.85;;;21.30;99.90;;;;;;5012184;28;20090;-80
2022/06/22 06:16:49;;;;;;;13.38;9.18;;;21.50;99.90;;;;;;4997442;28;20383;-80
2022/06/22 06:19:20;;;;;;;13.10;9.15;;;21.60;99.90;;;;;;4997458;28;20069;-80
2022/06/22 06:21:48;;;;;;;13.20;9.20;;;21.80;99.90;;;;;;5012439;28;20037;-80
2022/06/22 06:24:22;;;;;;;14.15;9.05;;;21.90;99.90;;;;;;5020429;28;20301;-80
2022/06/22 06:30:13;;;;;;;14.05;9.15;;;22.10;99.90;;;;;;5025285;28;20060;-79
2022/06/22 06:32:57;;;;;;;13.23;9.25;;;22.10;99.90;;;;;;5016618;28;20044;-79
2022/06/22 06:35:35;;;;;;;10.80;8.20;;;22.00;99.90;;;;;;5032346;28;20509;-79
2022/06/22 06:38:21;;;;;;;14.02;9.43;;;22.00;99.90;;;;;;5022602;28;20034;-79
2022/06/22 06:40:53;;;;;;;13.35;8.68;;;22.20;99.90;;;;;;5013213;28;20042;-79
2022/06/22 06:43:37;;;;;;;;;;;22.40;99.90;;;;;;5018990;28;20121;-79
2022/06/22 06:46:12;;;;;;;14.32;7.22;;;22.50;99.90;;;;;;5024955;28;19921;-79
2022/06/22 06:48:41;;;;;;;13.68;7.53;;;22.50;99.90;;;;;;5008424;28;20033;-79
2022/06/22 06:51:09;;;;;;;11.65;6.88;;;22.60;99.90;;;;;;5015688;28;20435;-79
2022/06/22 06:53:54;;;;;;;10.93;6.93;;;22.70;99.90;;;;;;4998410;28;20052;-79
2022/06/22 06:56:46;;;;;;;11.90;6.95;;;23.00;99.90;;;;;;5029997;28;20052;-79
2022/06/22 06:59:20;;;;;;;14.07;6.15;;;23.30;99.90;;;;;;5020304;28;20500;-79
2022/06/22 07:01:46;;;;;;;12.38;6.72;;;23.50;99.90;;;;;;5016808;28;20124;-79
2022/06/22 07:04:23;;;;;;;11.25;7.00;;;23.70;99.90;;;;;;5022391;28;20039;-79
2022/06/22 07:06:48;;;;;;;14.05;7.80;;;23.80;99.90;;;;;;5000637;28;20460;-79
2022/06/22 07:09:28;;;;;;;11.00;6.40;;;23.90;99.90;;;;;;5011070;28;20041;-79
2022/06/22 07:12:01;;;;;;;10.50;6.85;;;24.10;99.90;;;;;;5006465;28;20048;-79
2022/06/22 07:14:40;;;;;;;10.88;7.60;;;24.20;99.90;;;;;;5012595;28;20077;-80
2022/06/22 07:17:10;;;;;;;7.57;6.03;;;24.10;97.20;;;;;;4993784;28;20512;-79
2022/06/22 07:20:16;;;;;;;11.37;7.50;;;23.90;98.00;;;;;;5011657;28;20485;-79
2022/06/22 07:23:12;;;;;;;8.40;5.30;;;23.90;96.30;;;;;;4939058;28;20050;-79
2022/06/22 07:25:43;;;;;;;8.00;5.47;;;23.90;99.50;;;;;;4946750;28;20513;-79
2022/06/22 07:28:32;;;;;;;11.70;6.00;;;24.00;98.90;;;;;;4995614;28;20136;-79
2022/06/22 07:31:11;;;;;;;10.73;4.13;;;24.20;94.20;;;;;;5012329;28;20077;-80
2022/06/22 07:33:43;;;;;;;7.30;4.18;;;24.30;94.00;;;;;;4997280;28;20132;-80
2022/06/22 07:36:41;;;;;;;5.53;3.97;;;24.30;95.00;;;;;;4997539;28;20046;-80
2022/06/22 07:39:17;;;;;;;6.38;4.22;;;24.50;92.10;;;;;;5013246;28;20061;-80
2022/06/22 07:41:43;;;;;;;6.50;3.30;;;24.50;94.70;;;;;;5011839;28;20145;-80
2022/06/22 07:44:17;;;;;;;5.10;3.10;;;24.60;93.50;;;;;;4995991;28;20044;-80
2022/06/22 07:46:42;;;;;;;5.07;3.22;;;24.60;91.00;;;;;;5012678;28;20508;-79
2022/06/22 07:49:11;;;;;;;6.22;3.92;;;24.60;93.60;;;;;;5013376;28;20046;-80
2022/06/22 07:51:44;;;;;;;5.55;3.38;;;24.80;89.60;;;;;;5021019;28;20128;-81
2022/06/22 07:54:15;;;;;;;5.53;2.95;;;24.70;84.90;;;;;;5013063;28;20069;-80
2022/06/22 07:56:53;;;;;;;4.53;3.08;;;24.60;85.30;;;;;;4999436;28;20037;-80
2022/06/22 07:59:26;;;;;;;7.35;3.40;;;24.60;88.40;;;;;;5001881;28;20042;-81
2022/06/22 08:01:56;;;;;;;10.80;3.30;;;24.70;85.00;;;;;;5020898;28;20030;-80
2022/06/22 08:04:39;;;;;;;4.72;2.40;;;24.70;81.50;;;;;;4996417;28;20077;-80
2022/06/22 08:07:22;;;;;;;3.30;2.45;;;24.50;73.40;;;;;;5021515;28;20037;-80
2022/06/22 08:10:08;;;;;;;4.22;2.20;;;24.50;76.10;;;;;;5033054;28;20041;-81
2022/06/22 08:12:49;;;;;;;4.75;2.28;;;24.70;72.80;;;;;;5002309;28;20097;-81
2022/06/22 08:15:16;;;;;;;;;;;24.80;76.30;;;;;;5010376;28;20077;-81
2022/06/22 08:17:44;;;;;;;4.80;2.20;;;24.70;64.90;;;;;;4994121;28;19922;-81
2022/06/22 08:20:15;;;;;;;5.93;2.53;;;24.70;80.80;;;;;;5013363;28;20041;-80
2022/06/22 08:22:42;;;;;;;7.30;3.00;;;24.80;77.60;;;;;;5010886;28;20038;-80
2022/06/22 08:25:09;;;;;;;5.15;2.85;;;24.90;79.20;;;;;;5010220;28;20072;-81
2022/06/22 08:27:37;;;;;;;6.03;3.22;;;24.90;81.10;;;;;;5010530;28;20045;-81
2022/06/22 08:30:04;;;;;;;4.82;3.25;;;25.00;77.30;;;;;;4996233;28;20084;-80
2022/06/22 08:32:44;;;;;;;7.07;3.67;;;25.10;74.00;;;;;;5001531;28;20046;-81
2022/06/22 08:35:43;;;;;;;4.27;2.67;;;25.10;68.90;;;;;;5009843;28;20097;-81
2022/06/22 08:38:31;;;;;;;4.35;3.05;;;25.30;65.80;;;;;;5002566;28;20058;-79
2022/06/22 08:41:16;;;;;;;3.70;2.90;;;25.10;64.10;;;;;;5018359;28;20037;-80
2022/06/22 08:44:10;;;;;;;3.97;3.15;;;25.10;65.10;;;;;;5005653;28;20034;-81
2022/06/22 08:46:46;;;;;;;8.60;4.82;;;25.20;64.40;;;;;;5017468;28;20049;-81
2022/06/22 08:49:14;;;;;;;5.57;2.65;;;25.20;62.50;;;;;;5017094;28;20038;-80
2022/06/22 08:51:49;;;;;;;5.18;2.83;;;25.20;68.10;;;;;;5016560;28;20041;-79
2022/06/22 08:54:46;;;;;;;6.32;2.83;;;25.30;67.40;;;;;;5019100;28;20534;-80
2022/06/22 08:57:47;;;;;;;5.68;2.17;;;25.40;61.40;;;;;;5003958;28;20050;-80
2022/06/22 09:00:35;;;;;;;3.00;1.85;;;25.30;63.20;;;;;;5014273;28;20163;-80
2022/06/22 09:03:38;;;;;;;4.38;1.70;;;25.00;62.40;;;;;;5013261;28;20515;-80
2022/06/22 09:06:09;;;;;;;3.33;1.75;;;25.00;59.90;;;;;;5022699;28;20037;-80
2022/06/22 09:09:04;;;;;;;3.25;1.73;;;25.30;57.60;;;;;;5014168;28;20041;-80
2022/06/22 09:11:55;;;;;;;3.70;2.53;;;25.50;55.30;;;;;;5009917;28;20057;-80
2022/06/22 09:14:51;;;;;;;2.50;1.73;;;25.70;54.40;;;;;;5015768;28;20061;-81
2022/06/22 09:17:17;;;;;;;6.07;1.75;;;25.60;52.60;;;;;;5026336;28;20532;-79
2022/06/22 09:20:06;;;;;;;3.22;1.65;;;25.50;58.00;;;;;;5002185;28;20050;-81
2022/06/22 09:22:53;;;;;;;4.97;1.98;;;25.70;55.70;;;;;;5009101;28;20044;-81
2022/06/22 09:25:39;;;;;;;49.38;32.17;;;25.80;52.70;;;;;;5011477;28;20037;-80
2022/06/22 09:28:43;;;;;;;4.10;2.17;;;25.70;55.70;;;;;;5002670;28;20038;-80
2022/06/22 09:31:11;;;;;;;1.95;1.30;;;25.60;53.70;;;;;;4984749;28;20161;-80
2022/06/22 09:34:04;;;;;;;2.25;1.40;;;25.80;55.30;;;;;;4999698;28;20412;-80
2022/06/22 09:37:01;;;;;;;2.65;1.30;;;26.00;52.30;;;;;;4996496;28;20053;-79
2022/06/22 09:39:51;;;;;;;4.05;1.80;;;26.00;53.10;;;;;;5013826;28;20050;-80
2022/06/22 09:42:33;;;;;;;2.08;1.40;;;26.10;52.40;;;;;;5013762;28;20033;-81
2022/06/22 09:45:47;;;;;;;2.85;1.23;;;26.10;51.80;;;;;;5012202;28;20073;-81
2022/06/22 09:48:26;;;;;;;1.90;1.20;;;26.10;48.90;;;;;;4956299;28;20058;-80
2022/06/22 09:50:52;;;;;;;2.10;1.08;;;26.00;49.80;;;;;;5010138;28;20060;-81
2022/06/22 09:53:26;;;;;;;3.85;0.90;;;26.10;51.20;;;;;;5012534;28;20089;-81
2022/06/22 09:58:51;;;;;;;4.32;1.17;;;26.30;51.40;;;;;;5018708;28;20041;-81
2022/06/22 10:01:54;;;;;;;1.48;1.10;;;26.50;50.60;;;;;;5021104;28;20100;-80
2022/06/22 10:04:51;;;;;;;1.85;1.00;;;26.60;47.90;;;;;;5020422;28;20512;-80
2022/06/22 10:07:43;;;;;;;4.82;1.50;;;26.50;48.50;;;;;;5012539;28;20103;-80
2022/06/22 10:10:23;;;;;;;2.17;1.10;;;26.30;49.80;;;;;;5028433;28;20095;-81
2022/06/22 10:13:07;;;;;;;2.05;1.20;;;26.30;50.40;;;;;;4996794;28;20038;-81
2022/06/22 10:15:42;;;;;;;3.13;1.35;;;26.20;49.20;;;;;;4996693;28;20077;-81
2022/06/22 10:18:19;;;;;;;2.60;1.42;;;26.10;49.30;;;;;;4997115;28;20113;-81
2022/06/22 10:21:00;;;;;;;1.80;1.33;;;26.00;49.90;;;;;;5013476;28;20397;-79
2022/06/22 10:23:45;;;;;;;2.33;1.30;;;26.10;52.20;;;;;;5013868;28;20056;-79
2022/06/22 10:26:22;;;;;;;8.65;1.20;;;26.20;50.90;;;;;;5013579;28;20060;-79
2022/06/22 10:29:07;;;;;;;2.67;1.38;;;26.40;51.10;;;;;;5011844;28;20050;-79
2022/06/22 10:32:04;;;;;;;4.00;1.25;;;26.50;50.20;;;;;;5011149;28;20065;-79
2022/06/22 10:34:57;;;;;;;2.95;0.90;;;26.90;49.40;;;;;;5011810;28;20042;-79
2022/06/22 10:37:54;;;;;;;5.40;1.38;;;26.90;49.20;;;;;;5011742;28;20112;-79
2022/06/22 10:46:46;;;;;;;2.95;1.20;;;26.70;46.80;;;;;;4997544;28;19925;-79
2022/06/22 10:49:40;;;;;;;3.28;1.08;;;26.40;47.10;;;;;;5011603;28;20059;-79
2022/06/22 10:52:15;;;;;;;1.70;0.60;;;26.30;45.80;;;;;;4990174;28;20069;-79
2022/06/22 10:54:55;;;;;;;2.75;0.93;;;26.20;47.10;;;;;;5011649;28;20050;-79
2022/06/22 10:57:24;;;;;;;1.35;0.73;;;26.30;47.80;;;;;;4998842;28;20064;-79
2022/06/22 11:00:20;;;;;;;3.67;1.00;;;26.50;47.20;;;;;;5023258;28;20037;-79
2022/06/22 11:03:43;;;;;;;3.72;1.85;;;26.50;46.40;;;;;;5013077;28;20160;-79
2022/06/22 11:06:12;;;;;;;1.65;1.30;;;26.50;46.50;;;;;;4958996;28;20046;-79
2022/06/22 11:08:58;;;;;;;5.55;1.50;;;26.40;46.30;;;;;;5002355;28;20034;-79
2022/06/22 11:11:53;;;;;;;4.75;1.27;;;26.50;46.90;;;;;;5017031;28;20068;-79
2022/06/22 11:14:45;;;;;;;3.67;1.00;;;26.60;46.90;;;;;;5011901;28;20103;-79
2022/06/22 11:17:29;;;;;;;;;;;26.70;47.50;;;;;;5021985;28;20113;-79
2022/06/22 11:20:19;;;;;;;2.00;0.93;;;26.80;48.20;;;;;;5016119;28;19928;-79
2022/06/22 11:23:00;;;;;;;2.53;1.00;;;26.80;48.90;;;;;;5011058;28;20034;-79
2022/06/22 11:32:29;;;;;;;3.53;1.20;;;26.60;48.20;;;;;;5031635;28;20056;-79
2022/06/22 11:35:32;;;;;;;4.30;1.10;;;26.60;47.80;;;;;;5014164;28;20048;-79
2022/06/22 11:38:33;;;;;;;2.22;1.00;;;26.60;46.80;;;;;;5017152;28;20037;-79
2022/06/22 11:41:18;;;;;;;17.27;9.60;;;26.70;48.50;;;;;;5055979;28;20052;-78
2022/06/22 11:43:59;;;;;;;2.38;1.42;;;26.80;49.50;;;;;;5032997;28;20038;-78
2022/06/22 11:46:45;;;;;;;2.25;0.93;;;27.00;48.60;;;;;;5021964;28;20042;-79
2022/06/22 11:49:51;;;;;;;1.25;0.90;;;27.10;47.30;;;;;;5013263;28;20049;-78
2022/06/22 11:52:38;;;;;;;2.00;1.00;;;27.10;46.20;;;;;;5011964;28;20077;-79
2022/06/22 11:55:27;;;;;;;3.88;0.93;;;27.00;46.30;;;;;;5020127;28;20049;-79
2022/06/22 11:58:08;;;;;;;2.22;0.80;;;26.80;44.50;;;;;;5012779;28;20034;-79
2022/06/22 12:00:58;;;;;;;2.23;0.90;;;26.80;44.30;;;;;;4999075;28;20523;-79
2022/06/22 12:03:36;;;;;;;2.00;0.80;;;26.60;44.70;;;;;;5007656;28;20042;-79
2022/06/22 12:06:35;;;;;;;1.85;1.10;;;26.70;45.40;;;;;;5018389;28;20503;-79
2022/06/22 12:09:13;;;;;;;1.38;0.80;;;27.00;48.70;;;;;;4994250;28;20050;-79
2022/06/22 12:12:16;;;;;;;2.97;1.00;;;27.30;46.00;;;;;;5009844;28;20117;-79
2022/06/22 12:15:12;;;;;;;1.23;0.85;;;27.40;45.40;;;;;;5005889;28;20041;-79
2022/06/22 12:18:14;;;;;;;2.72;1.15;;;27.40;45.60;;;;;;5018722;28;20065;-79
2022/06/22 12:20:48;;;;;;;2.55;1.38;;;27.40;44.00;;;;;;5009442;28;20041;-79
2022/06/22 12:23:28;;;;;;;2.60;0.88;;;27.20;45.00;;;;;;5015839;28;20099;-80
2022/06/22 12:26:18;;;;;;;3.38;1.15;;;27.20;48.10;;;;;;4996306;28;20053;-79
2022/06/22 12:29:09;;;;;;;3.83;1.13;;;27.20;45.20;;;;;;4999755;28;20083;-79
2022/06/22 12:31:47;;;;;;;1.83;1.05;;;27.20;46.40;;;;;;5011863;28;20728;-78
2022/06/22 12:34:13;;;;;;;2.47;0.80;;;27.40;46.20;;;;;;5005393;28;20144;-76
2022/06/22 12:36:44;;;;;;;3.03;1.17;;;27.50;46.60;;;;;;4997077;28;20129;-79
2022/06/22 12:39:28;;;;;;;4.95;1.33;;;27.60;45.90;;;;;;5005024;28;20116;-77
2022/06/22 12:42:30;;;;;;;2.75;0.98;;;27.50;48.00;;;;;;5028063;28;20033;-79
2022/06/22 12:45:25;;;;;;;2.20;0.80;;;27.60;46.70;;;;;;5018837;28;20034;-79
2022/06/22 12:47:51;;;;;;;2.15;1.20;;;27.60;47.20;;;;;;5024005;28;20041;-79
2022/06/22 12:50:44;;;;;;;3.13;1.10;;;27.60;47.40;;;;;;5020406;28;20451;-78
2022/06/22 12:53:29;;;;;;;1.88;1.00;;;27.60;46.70;;;;;;5021374;28;20056;-79
2022/06/22 12:56:06;;;;;;;3.42;1.40;;;27.40;47.20;;;;;;5020758;28;20138;-79
2022/06/22 12:58:42;;;;;;;3.38;1.10;;;27.40;45.80;;;;;;5014365;28;20069;-79
2022/06/22 13:01:08;;;;;;;4.10;1.23;;;27.10;46.20;;;;;;5030453;28;20041;-79
2022/06/22 13:03:40;;;;;;;2.65;1.20;;;27.10;47.00;;;;;;5030754;28;20121;-78
2022/06/22 13:06:07;;;;;;;1.95;0.98;;;27.10;46.60;;;;;;5013600;28;20049;-79
2022/06/22 13:08:33;;;;;;;2.10;1.35;;;27.20;45.30;;;;;;5031553;28;20531;-81
2022/06/22 13:11:06;;;;;;;2.20;1.00;;;27.40;44.70;;;;;;5033911;28;20436;-81
2022/06/22 13:13:46;;;;;;;2.65;0.93;;;27.60;45.00;;;;;;5032885;28;20144;-81
2022/06/22 13:16:24;;;;;;;2.60;0.93;;;27.70;45.50;;;;;;5000158;28;20461;-81
2022/06/22 13:18:55;;;;;;;2.72;1.10;;;27.60;47.80;;;;;;5032946;28;20092;-81
2022/06/22 13:21:31;;;;;;;2.55;1.15;;;27.70;47.30;;;;;;5018235;28;20136;-81
2022/06/22 13:24:18;;;;;;;1.88;1.25;;;27.80;45.00;;;;;;5032900;28;20034;-81
2022/06/22 13:27:15;;;;;;;2.13;1.20;;;27.80;45.80;;;;;;5016538;28;20037;-81
2022/06/22 13:29:59;;;;;;;3.15;1.10;;;27.90;46.10;;;;;;5016218;28;20079;-82
2022/06/22 13:32:28;;;;;;;2.00;0.90;;;27.80;45.40;;;;;;5032725;28;20052;-81
2022/06/22 13:35:40;;;;;;;2.72;1.08;;;27.50;45.10;;;;;;5032840;28;20397;-81
2022/06/22 13:38:26;;;;;;;;;;;27.30;44.10;;;;;;4987008;28;20087;-81
2022/06/22 13:41:06;;;;;;;2.05;1.13;;;27.30;43.40;;;;;;5032556;28;19920;-81
2022/06/22 13:43:54;;;;;;;1.58;1.00;;;27.50;44.30;;;;;;5032832;28;20045;-81
2022/06/22 13:46:36;;;;;;;3.13;1.17;;;27.30;44.20;;;;;;5032323;28;20448;-81
2022/06/22 13:49:14;;;;;;;2.72;1.05;;;27.30;43.30;;;;;;5033110;28;20582;-81
2022/06/22 13:52:12;;;;;;;2.13;1.10;;;27.40;44.90;;;;;;5015727;28;20041;-81
2022/06/22 13:54:56;;;;;;;2.13;0.85;;;27.50;44.30;;;;;;5016444;28;20147;-81
2022/06/22 13:57:31;;;;;;;3.75;0.98;;;27.60;44.00;;;;;;5016127;28;20048;-81
2022/06/22 14:00:12;;;;;;;2.67;0.90;;;27.70;43.30;;;;;;5032052;28;20040;-81
2022/06/22 14:02:37;;;;;;;3.67;1.13;;;27.70;43.30;;;;;;5032558;28;20436;-81
2022/06/22 14:05:34;;;;;;;1.40;1.00;;;27.70;43.80;;;;;;5016191;28;20053;-82
2022/06/22 14:08:15;;;;;;;2.20;1.02;;;27.50;45.10;;;;;;5031121;28;20029;-81